createdAt,value
2018-12-16T00:00:34.051Z,5.67
2018-12-16T00:03:05.072Z,4.27
2018-12-16T00:05:40.538Z,4.10
2018-12-16T00:08:22.052Z,3.70
2018-12-16T00:10:58.155Z,4.30
2018-12-16T00:13:33.913Z,4.10
2018-12-16T00:23:58.594Z,4.07
2018-12-16T00:26:39.068Z,3.87
2018-12-16T00:29:12.434Z,5.03
2018-12-16T00:31:56.904Z,4.00
2018-12-16T00:34:30.849Z,3.83
2018-12-16T00:37:06.436Z,4.03
2018-12-16T00:39:42.317Z,4.07
2018-12-16T00:42:17.696Z,3.90
2018-12-16T00:45:04.884Z,4.00
2018-12-16T00:47:44.823Z,3.97
2018-12-16T00:50:23.145Z,3.80
2018-12-16T00:52:56.501Z,3.83
2018-12-16T00:55:40.952Z,4.30
2018-12-16T00:58:19.079Z,3.73
2018-12-16T01:00:52.683Z,4.47
2018-12-16T01:03:28.317Z,4.07
2018-12-16T01:06:08.629Z,6.33
2018-12-16T01:08:45.960Z,4.00
2018-12-16T01:14:09.954Z,5.03
2018-12-16T01:16:50.193Z,4.00
2018-12-16T01:19:28.476Z,3.80
2018-12-16T01:22:03.736Z,4.20
2018-12-16T01:24:44.133Z,4.03
2018-12-16T01:35:08.196Z,4.00
2018-12-16T01:37:52.524Z,3.93
2018-12-16T01:40:26.564Z,9.80
2018-12-16T01:43:00.234Z,6.03
2018-12-16T01:45:35.892Z,5.90
2018-12-16T01:48:15.416Z,5.50
2018-12-16T01:50:51.504Z,5.20
2018-12-16T01:53:27.154Z,3.80
2018-12-16T01:56:06.706Z,3.70
2018-12-16T01:58:44.595Z,4.23
2018-12-16T02:01:20.273Z,4.10
2018-12-16T02:06:49.095Z,6.03
2018-12-16T02:09:24.548Z,4.53
2018-12-16T02:11:58.362Z,4.20
2018-12-16T02:14:36.096Z,4.00
2018-12-16T02:17:11.389Z,3.67
2018-12-16T02:19:47.228Z,4.27
2018-12-16T02:22:25.187Z,4.20
2018-12-16T02:25:00.413Z,3.90
2018-12-16T02:27:36.187Z,3.90
2018-12-16T02:30:15.927Z,4.40
2018-12-16T02:32:47.264Z,4.50
2018-12-16T02:35:22.528Z,4.10
2018-12-16T02:38:00.611Z,3.73
2018-12-16T02:40:35.885Z,5.30
2018-12-16T02:43:15.486Z,4.00
2018-12-16T02:45:48.704Z,4.27
2018-12-16T02:48:22.564Z,4.40
2018-12-16T02:50:58.233Z,3.80
2018-12-16T02:53:32.304Z,4.80
2018-12-16T02:56:11.667Z,4.23
2018-12-16T02:58:54.364Z,4.23
2018-12-16T03:01:28.518Z,4.03
2018-12-16T03:04:02.501Z,4.30
2018-12-16T03:06:38.259Z,4.43
2018-12-16T03:09:14.136Z,4.40
2018-12-16T03:11:48.023Z,3.83
2018-12-16T03:14:28.456Z,4.23
2018-12-16T03:17:07.709Z,4.30
2018-12-16T03:19:44.381Z,4.20
2018-12-16T03:22:22.348Z,3.77
2018-12-16T03:24:55.713Z,4.33
2018-12-16T03:27:29.484Z,3.63
2018-12-16T03:30:05.193Z,5.10
2018-12-16T03:32:40.867Z,4.20
2018-12-16T03:35:27.716Z,3.63
2018-12-16T03:38:11.858Z,3.77
2018-12-16T03:40:52.656Z,4.37
2018-12-16T03:43:30.527Z,3.83
2018-12-16T03:46:06.380Z,4.10
2018-12-16T03:48:41.537Z,3.90
2018-12-16T03:51:32.300Z,4.27
2018-12-16T03:57:04.964Z,4.13
2018-12-16T03:59:41.891Z,4.40
2018-12-16T04:02:22.540Z,3.80
2018-12-16T04:04:58.384Z,5.00
2018-12-16T04:07:34.156Z,4.27
2018-12-16T04:10:07.893Z,3.90
2018-12-16T04:12:41.777Z,4.10
2018-12-16T04:15:26.187Z,4.40
2018-12-16T04:18:02.237Z,3.67
2018-12-16T04:20:42.848Z,3.57
2018-12-16T04:23:27.371Z,3.63
2018-12-16T04:26:09.690Z,3.80
2018-12-16T04:28:48.726Z,4.70
2018-12-16T04:31:31.496Z,5.07
2018-12-16T04:34:05.268Z,4.20
2018-12-16T04:36:41.009Z,3.70
2018-12-16T04:39:18.912Z,4.03
2018-12-16T04:41:56.679Z,3.77
2018-12-16T04:44:41.124Z,3.77
2018-12-16T04:47:17.169Z,3.50
2018-12-16T04:49:53.508Z,4.20
2018-12-16T04:52:37.420Z,4.80
2018-12-16T04:55:25.033Z,3.43
2018-12-16T04:57:59.208Z,5.90
2018-12-16T05:00:34.847Z,4.80
2018-12-16T05:03:10.400Z,3.73
2018-12-16T05:05:44.267Z,4.83
2018-12-16T05:08:20.671Z,4.90
2018-12-16T05:10:56.542Z,6.10
2018-12-16T05:13:32.204Z,4.57
2018-12-16T05:16:06.056Z,3.93
2018-12-16T05:18:45.694Z,5.37
2018-12-16T05:21:30.273Z,5.23
2018-12-16T05:24:03.538Z,4.03
2018-12-16T05:26:39.102Z,4.37
2018-12-16T05:29:14.862Z,4.17
2018-12-16T05:31:48.607Z,3.70
2018-12-16T05:34:32.970Z,3.70
2018-12-16T05:37:10.110Z,4.97
2018-12-16T05:39:44.074Z,3.90
2018-12-16T05:42:25.413Z,3.60
2018-12-16T05:45:01.511Z,4.17
2018-12-16T05:47:37.261Z,3.80
2018-12-16T05:50:11.187Z,3.87
2018-12-16T05:52:55.399Z,13.53
2018-12-16T05:55:31.460Z,4.67
2018-12-16T05:58:15.684Z,5.17
2018-12-16T06:00:56.407Z,3.10
2018-12-16T06:03:33.556Z,3.60
2018-12-16T06:06:09.940Z,3.37
2018-12-16T06:08:45.313Z,3.43
2018-12-16T06:11:20.036Z,3.10
2018-12-16T06:13:58.119Z,3.43
2018-12-16T06:16:33.848Z,3.70
2018-12-16T06:19:09.439Z,4.53
2018-12-16T06:21:45.184Z,2.90
2018-12-16T06:24:20.956Z,5.47
2018-12-16T06:26:54.960Z,3.67
2018-12-16T06:29:32.836Z,2.90
2018-12-16T06:32:06.877Z,4.37
2018-12-16T06:34:42.750Z,3.50
2018-12-16T06:37:20.489Z,4.57
2018-12-16T06:39:56.265Z,3.73
2018-12-16T06:42:34.379Z,3.83
2018-12-16T06:45:08.412Z,3.50
2018-12-16T06:47:43.885Z,3.40
2018-12-16T06:50:19.751Z,3.30
2018-12-16T06:52:55.707Z,3.77
2018-12-16T06:55:35.266Z,3.77
2018-12-16T06:58:12.327Z,3.47
2018-12-16T07:00:46.299Z,3.70
2018-12-16T07:03:22.041Z,3.43
2018-12-16T07:05:57.793Z,3.43
2018-12-16T07:08:38.164Z,2.97
2018-12-16T07:11:12.135Z,3.37
2018-12-16T07:13:47.779Z,4.07
2018-12-16T07:19:11.945Z,4.03
2018-12-16T07:21:46.018Z,2.87
2018-12-16T07:27:07.894Z,3.50
2018-12-16T07:29:41.786Z,2.70
2018-12-16T07:32:18.126Z,4.63
2018-12-16T07:34:49.586Z,3.23
2018-12-16T07:37:27.532Z,3.17
2018-12-16T07:40:04.353Z,3.10
2018-12-16T07:42:40.453Z,3.97
2018-12-16T07:45:20.472Z,3.23
2018-12-16T07:47:58.801Z,3.43
2018-12-16T07:50:39.099Z,3.47
2018-12-16T07:53:17.547Z,3.20
2018-12-16T07:55:53.145Z,3.00
2018-12-16T07:58:28.892Z,3.00
2018-12-16T08:01:04.704Z,3.00
2018-12-16T08:03:45.177Z,2.80
2018-12-16T08:06:21.440Z,3.13
2018-12-16T08:08:59.744Z,2.93
2018-12-16T08:11:39.024Z,3.47
2018-12-16T08:14:17.028Z,3.10
2018-12-16T08:16:52.895Z,3.90
2018-12-16T08:19:26.909Z,3.13
2018-12-16T08:22:02.494Z,2.67
2018-12-16T08:24:46.821Z,3.00
2018-12-16T08:27:22.884Z,2.77
2018-12-16T08:29:56.648Z,2.60
2018-12-16T08:32:32.421Z,2.87
2018-12-16T08:35:06.370Z,3.20
2018-12-16T08:37:40.398Z,4.00
2018-12-16T08:40:14.336Z,6.63
2018-12-16T08:42:50.332Z,2.63
2018-12-16T08:45:28.217Z,2.80
2018-12-16T08:47:59.117Z,4.23
2018-12-16T08:50:34.581Z,3.17
2018-12-16T08:55:49.974Z,4.47
2018-12-16T08:58:23.536Z,2.90
2018-12-16T09:01:02.964Z,2.43
2018-12-16T09:03:37.447Z,2.83
2018-12-16T09:06:13.441Z,7.40
2018-12-16T09:08:56.122Z,4.13
2018-12-16T09:11:37.553Z,5.67
2018-12-16T09:14:13.591Z,5.37
2018-12-16T09:16:56.128Z,9.63
2018-12-16T09:19:32.993Z,6.40
2018-12-16T09:22:11.139Z,3.23
2018-12-16T09:24:47.261Z,4.63
2018-12-16T09:27:23.027Z,2.57
2018-12-16T09:29:59.377Z,6.00
2018-12-16T09:32:35.436Z,6.10
2018-12-16T09:35:06.332Z,3.37
2018-12-16T09:37:41.912Z,3.60
2018-12-16T09:40:21.963Z,4.23
2018-12-16T09:43:03.160Z,2.23
2018-12-16T09:48:24.792Z,4.33
2018-12-16T09:51:03.097Z,3.67
2018-12-16T09:53:44.021Z,3.73
2018-12-16T09:56:18.192Z,2.87
2018-12-16T09:58:55.924Z,2.40
2018-12-16T10:04:13.745Z,2.23
2018-12-16T10:06:58.056Z,2.40
2018-12-16T10:09:36.544Z,2.93
2018-12-16T10:12:11.735Z,3.00
2018-12-16T10:14:49.875Z,3.43
2018-12-16T10:17:23.756Z,2.97
2018-12-16T10:19:59.600Z,2.43
2018-12-16T10:22:35.491Z,2.27
2018-12-16T10:25:12.376Z,2.20
2018-12-16T10:27:46.282Z,3.63
2018-12-16T10:30:24.829Z,3.30
2018-12-16T10:33:01.755Z,4.90
2018-12-16T10:35:37.496Z,3.47
2018-12-16T10:38:11.667Z,2.30
2018-12-16T10:40:47.320Z,2.53
2018-12-16T10:43:22.891Z,2.37
2018-12-16T10:46:00.050Z,5.10
2018-12-16T10:48:35.927Z,2.33
2018-12-16T10:51:11.777Z,2.10
2018-12-16T10:53:42.812Z,2.10
2018-12-16T10:56:19.952Z,2.67
2018-12-16T10:58:54.142Z,2.20
2018-12-16T11:06:44.061Z,3.47
2018-12-16T11:09:19.632Z,2.73
2018-12-16T11:11:55.415Z,3.20
2018-12-16T11:14:31.195Z,2.97
2018-12-16T11:17:04.932Z,6.27
2018-12-16T11:19:39.499Z,3.83
2018-12-16T11:22:15.248Z,3.47
2018-12-16T11:24:49.224Z,2.37
2018-12-16T11:27:29.643Z,4.60
2018-12-16T11:30:09.551Z,2.63
2018-12-16T11:32:55.729Z,3.07
2018-12-16T11:35:29.765Z,3.37
2018-12-16T11:38:05.663Z,4.83
2018-12-16T11:40:41.408Z,1.97
2018-12-16T11:43:19.072Z,2.20
2018-12-16T11:45:54.852Z,3.10
2018-12-16T11:48:29.524Z,4.67
2018-12-16T11:51:05.169Z,4.73
2018-12-16T11:53:44.545Z,6.63
2018-12-16T11:56:27.129Z,9.53
2018-12-16T11:59:05.379Z,11.43
2018-12-16T12:01:44.899Z,6.97
2018-12-16T12:04:20.764Z,8.00
2018-12-16T12:07:00.278Z,19.37
2018-12-16T12:09:36.283Z,13.77
2018-12-16T12:14:46.004Z,15.90
2018-12-16T12:17:22.047Z,14.03
2018-12-16T12:19:55.913Z,10.73
2018-12-16T12:22:31.556Z,9.60
2018-12-16T12:25:07.243Z,12.40
2018-12-16T12:27:45.220Z,9.83
2018-12-16T12:30:23.526Z,10.93
2018-12-16T12:32:58.910Z,15.47
2018-12-16T12:35:32.610Z,9.20
2018-12-16T12:38:10.487Z,10.13
2018-12-16T12:40:46.146Z,8.43
2018-12-16T12:43:26.640Z,11.90
2018-12-16T12:46:05.308Z,8.33
2018-12-16T12:48:40.896Z,7.97
2018-12-16T12:51:14.718Z,9.40
2018-12-16T12:53:50.385Z,7.60
2018-12-16T12:56:30.964Z,7.27
2018-12-16T12:59:13.542Z,7.57
2018-12-16T13:01:49.583Z,4.37
2018-12-16T13:04:25.232Z,10.20
2018-12-16T13:06:59.146Z,6.63
2018-12-16T13:09:34.802Z,6.93
2018-12-16T13:14:52.183Z,5.70
2018-12-16T13:17:28.112Z,5.07
2018-12-16T13:20:05.996Z,5.03
2018-12-16T13:22:41.739Z,6.07
2018-12-16T13:25:33.702Z,8.53
2018-12-16T13:28:05.553Z,6.23
2018-12-16T13:30:42.264Z,4.33
2018-12-16T13:33:16.196Z,4.73
2018-12-16T13:35:51.863Z,6.10
2018-12-16T13:38:27.518Z,2.80
2018-12-16T13:41:05.212Z,3.70
2018-12-16T13:43:42.013Z,3.93
2018-12-16T13:46:17.662Z,5.80
2018-12-16T13:48:53.354Z,4.30
2018-12-16T13:51:29.004Z,4.13
2018-12-16T13:54:10.548Z,3.40
2018-12-16T13:56:46.871Z,4.00
2018-12-16T13:59:20.537Z,5.60
2018-12-16T14:01:56.329Z,2.93
2018-12-16T14:04:30.397Z,2.73
2018-12-16T14:07:11.916Z,3.70
2018-12-16T14:09:59.453Z,3.77
2018-12-16T14:12:34.620Z,5.30
2018-12-16T14:15:13.206Z,3.17
2018-12-16T14:17:58.451Z,3.80
2018-12-16T14:20:35.637Z,3.97
2018-12-16T14:23:11.574Z,3.47
2018-12-16T14:25:48.223Z,3.70
2018-12-16T14:28:24.551Z,3.77
2018-12-16T14:30:58.535Z,2.90
2018-12-16T14:33:39.121Z,3.03
2018-12-16T14:36:13.204Z,2.50
2018-12-16T14:38:52.656Z,3.13
2018-12-16T14:41:34.653Z,5.27
2018-12-16T14:44:08.599Z,2.77
2018-12-16T14:46:44.208Z,3.63
2018-12-16T14:49:15.411Z,2.70
2018-12-16T14:51:51.796Z,2.33
2018-12-16T14:54:25.932Z,2.50
2018-12-16T14:57:03.268Z,3.83
2018-12-16T14:59:39.325Z,3.20
2018-12-16T15:02:15.093Z,2.30
2018-12-16T15:04:48.887Z,3.13
2018-12-16T15:07:24.440Z,2.47
2018-12-16T15:10:00.285Z,3.20
2018-12-16T15:12:40.799Z,2.87
2018-12-16T15:15:23.173Z,3.27
2018-12-16T15:18:00.637Z,3.07
2018-12-16T15:20:47.553Z,3.80
2018-12-16T15:23:23.088Z,3.87
2018-12-16T15:26:02.099Z,5.20
2018-12-16T15:28:35.685Z,3.73
2018-12-16T15:31:23.535Z,4.03
2018-12-16T15:34:03.620Z,3.33
2018-12-16T15:36:48.359Z,2.60
2018-12-16T15:39:22.584Z,4.27
2018-12-16T15:41:58.159Z,2.93
2018-12-16T15:44:34.032Z,2.70
2018-12-16T15:47:15.295Z,3.93
2018-12-16T15:49:50.744Z,2.73
2018-12-16T15:55:07.570Z,3.03
2018-12-16T15:57:43.477Z,4.60
2018-12-16T16:03:04.308Z,4.20
2018-12-16T16:05:38.298Z,3.60
2018-12-16T16:08:16.591Z,2.37
2018-12-16T16:10:46.481Z,3.93
2018-12-16T16:13:33.350Z,4.83
2018-12-16T16:16:17.398Z,2.10
2018-12-16T16:18:53.272Z,2.30
2018-12-16T16:21:24.493Z,3.27
2018-12-16T16:23:59.064Z,3.10
2018-12-16T16:36:56.658Z,2.90
2018-12-16T16:39:33.493Z,3.43
2018-12-16T16:42:07.350Z,2.90
2018-12-16T16:44:49.668Z,2.77
2018-12-16T16:47:25.751Z,2.57
2018-12-16T16:49:59.405Z,3.37
2018-12-16T16:52:35.012Z,2.40
2018-12-16T16:55:10.873Z,2.57
2018-12-16T16:57:46.639Z,1.90
2018-12-16T17:00:22.588Z,2.73
2018-12-16T17:02:56.494Z,1.80
2018-12-16T17:05:32.122Z,2.83
2018-12-16T17:08:03.146Z,2.53
2018-12-16T17:10:51.188Z,2.33
2018-12-16T17:13:29.287Z,2.30
2018-12-16T17:16:07.539Z,2.20
2018-12-16T17:18:47.749Z,2.50
2018-12-16T17:21:21.814Z,2.37
2018-12-16T17:23:57.415Z,2.17
2018-12-16T17:26:31.047Z,2.60
2018-12-16T17:32:18.535Z,2.27
2018-12-16T17:34:54.089Z,4.00
2018-12-16T17:37:33.549Z,2.57
2018-12-16T17:40:18.503Z,2.20
2018-12-16T17:43:08.249Z,2.07
2018-12-16T17:45:52.268Z,2.20
2018-12-16T17:48:28.372Z,2.40
2018-12-16T17:51:15.325Z,2.73
2018-12-16T17:53:45.957Z,2.50
2018-12-16T17:56:37.168Z,2.10
2018-12-16T17:59:10.131Z,2.87
2018-12-16T18:01:46.285Z,1.97
2018-12-16T18:04:21.748Z,2.53
2018-12-16T18:06:57.674Z,2.00
2018-12-16T18:09:31.643Z,3.00
2018-12-16T18:12:09.108Z,3.43
2018-12-16T18:14:42.400Z,1.80
2018-12-16T18:17:18.368Z,2.10
2018-12-16T18:19:54.120Z,2.37
2018-12-16T18:22:34.564Z,2.27
2018-12-16T18:25:08.623Z,2.40
2018-12-16T18:27:47.016Z,1.80
2018-12-16T18:30:29.754Z,2.10
2018-12-16T18:33:07.110Z,1.73
2018-12-16T18:35:40.539Z,2.00
2018-12-16T18:38:16.228Z,1.90
2018-12-16T18:40:51.868Z,2.07
2018-12-16T18:43:28.825Z,3.33
2018-12-16T18:46:13.223Z,1.60
2018-12-16T18:49:04.492Z,2.30
2018-12-16T18:54:24.824Z,2.17
2018-12-16T18:57:07.209Z,3.77
2018-12-16T18:59:40.756Z,1.77
2018-12-16T19:02:14.538Z,1.80
2018-12-16T19:04:59.048Z,2.33
2018-12-16T19:10:35.449Z,3.27
2018-12-16T19:13:12.675Z,2.07
2018-12-16T19:15:49.955Z,2.10
2018-12-16T19:18:37.854Z,2.20
2018-12-16T19:21:14.140Z,2.20
2018-12-16T19:23:49.615Z,3.07
2018-12-16T19:26:27.533Z,53.37
2018-12-16T19:29:11.930Z,32.80
2018-12-16T19:31:47.690Z,28.20
2018-12-16T19:34:23.573Z,20.33
2018-12-16T19:36:59.352Z,17.20
2018-12-16T19:39:35.455Z,361.00
2018-12-16T19:44:52.231Z,1259.20
2018-12-16T19:47:28.428Z,1005.30
2018-12-16T19:50:15.075Z,878.70
2018-12-16T19:52:48.519Z,785.23
2018-12-16T19:55:30.839Z,676.77
2018-12-16T19:58:05.044Z,635.60
2018-12-16T20:00:40.393Z,558.80
2018-12-16T20:03:16.315Z,537.30
2018-12-16T20:05:59.432Z,519.23
2018-12-16T20:08:33.036Z,473.73
2018-12-16T20:11:08.684Z,453.63
2018-12-16T20:13:44.794Z,436.53
2018-12-16T20:16:18.668Z,381.40
2018-12-16T20:18:54.164Z,350.90
2018-12-16T20:21:38.463Z,329.53
2018-12-16T20:24:09.896Z,303.30
2018-12-16T20:26:43.348Z,293.67
2018-12-16T20:29:30.143Z,264.10
2018-12-16T20:32:11.043Z,264.23
2018-12-16T20:34:46.314Z,260.07
2018-12-16T20:37:22.062Z,224.80
2018-12-16T20:39:57.947Z,217.97
2018-12-16T20:42:31.827Z,208.37
2018-12-16T20:45:07.702Z,191.30
2018-12-16T20:50:38.905Z,179.90
2018-12-16T20:53:19.327Z,173.20
2018-12-16T20:55:54.173Z,159.70
2018-12-16T20:58:42.997Z,144.87
2018-12-16T21:01:23.321Z,152.33
2018-12-16T21:04:00.875Z,139.13
2018-12-16T21:06:36.739Z,135.90
2018-12-16T21:09:12.414Z,136.93
2018-12-16T21:12:03.384Z,132.47
2018-12-16T21:20:23.299Z,116.10
2018-12-16T21:22:59.235Z,112.73
2018-12-16T21:25:34.824Z,104.63
2018-12-16T21:28:10.363Z,109.13
2018-12-16T21:30:47.912Z,97.37
2018-12-16T21:33:23.764Z,97.00
2018-12-16T21:35:59.829Z,100.37
2018-12-16T21:38:48.041Z,91.83
2018-12-16T21:44:05.181Z,91.47
2018-12-16T21:46:41.056Z,94.00
2018-12-16T21:49:16.912Z,91.70
2018-12-16T21:51:53.775Z,87.50
2018-12-16T21:54:27.728Z,81.03
2018-12-16T21:57:03.501Z,86.13
2018-12-16T21:59:41.544Z,81.73
2018-12-16T22:04:58.393Z,81.40
2018-12-16T22:07:38.422Z,78.47
2018-12-16T22:10:29.180Z,79.47
2018-12-16T22:13:04.514Z,76.27
2018-12-16T22:27:21.804Z,75.67
2018-12-16T22:29:55.647Z,72.77
2018-12-16T22:32:31.732Z,69.83
2018-12-16T22:35:05.659Z,68.10
2018-12-16T22:37:41.351Z,67.73
2018-12-16T22:46:15.646Z,66.97
2018-12-16T23:10:05.453Z,62.77
2018-12-16T23:12:39.478Z,61.17
2018-12-16T23:15:11.356Z,55.47
2018-12-16T23:20:49.654Z,55.27
2018-12-16T23:23:25.324Z,56.20
2018-12-16T23:26:13.240Z,55.43
2018-12-16T23:28:46.812Z,55.10
2018-12-16T23:31:22.561Z,51.03
2018-12-16T23:33:59.992Z,54.57
2018-12-16T23:36:36.926Z,50.93
2018-12-16T23:39:12.816Z,49.27
2018-12-16T23:41:53.217Z,52.07
2018-12-16T23:44:29.121Z,57.30
2018-12-16T23:47:04.966Z,48.97
2018-12-16T23:49:40.935Z,52.40
2018-12-16T23:52:17.072Z,51.53
2018-12-16T23:54:52.669Z,50.43
2018-12-16T23:57:43.893Z,46.23
